アナディリ の空港の天気 - METARとTAF

アナディリ・ウゴルヌイ空港 ( UHMA / DYR ) - ロシア アナディリ
飛行場実況気象(Metar)
観測時間10/20 05:00 MAGT (10/19 18:00 UTC)
風向・風速北 3m/s
視程10km以上
天気現象
全天の8割程度の雲 雲底高度 490m
気温-5℃
湿度86%
気圧1011hPa
METARUHMA 191800Z 35003MPS 9999 BKN016 M05/M07 Q1011 R01/////// NOSIG RMK END R01/36003MPS QFE754/1006
過去の天気等 Google飛行場航空写真 Wunderground天気予報

過去48時間のMETAR

飛行場予報(TAF)
発表時間: 10/20 03:45 MAGT (10/19 16:45 UTC)
予報対象時間: 20日5時 MAGT ~ 21日5時 MAGT
風向・風速北 6m/s
視程10km以上
全天の8割程度の雲 雲底高度 760m
20日5時 MAGT ~ 21日5時 MAGT に一時的に
風向・風速北西 3m/s
視程2000m
天気現象もや
全天の4割程度の雲 雲底高度 180m
全天の8割程度の雲 雲底高度 610m
TAF UHMA 191645Z 1918/2018 01006MPS 9999 BKN025
TEMPO 1918/2018 32003MPS 2000 BR SCT006 BKN020